Time;durP1;ratioP1;P1;durP2;ratioP2;P2;SDS_P1;SDS_P2;PMS_P1;PMS_P2;Temp;Humidity;BMP_temperature;BMP_pressure;BME280_temperature;BME280_humidity;BME280_pressure;Samples;Min_cycle;Max_cycle;Signal;HPM_P1;HPM_P2
2020/12/17 00:00:33;;;;;;;150.10;54.03;;;5.20;94.20;;;;;;5067235;28;20205;-81
2020/12/17 00:03:03;;;;;;;147.67;51.37;;;5.20;94.20;;;;;;5062046;28;20190;-82
2020/12/17 00:05:31;;;;;;;131.93;49.70;;;5.20;94.20;;;;;;5075407;28;20410;-80
2020/12/17 00:07:59;;;;;;;138.97;49.83;;;5.10;94.20;;;;;;5076091;28;20211;-81
2020/12/17 00:10:28;;;;;;;144.03;51.37;;;5.10;94.20;;;;;;5082810;28;20337;-79
2020/12/17 00:12:55;;;;;;;143.00;52.63;;;5.10;94.20;;;;;;5076216;28;20677;-81
2020/12/17 00:15:24;;;;;;;145.03;53.53;;;5.10;94.20;;;;;;5057921;28;20649;-80
2020/12/17 00:17:53;;;;;;;139.97;51.70;;;5.10;94.20;;;;;;5062446;28;20178;-80
2020/12/17 00:20:24;;;;;;;146.50;52.47;;;5.10;94.20;;;;;;5075482;28;20203;-80
2020/12/17 00:22:52;;;;;;;149.87;52.53;;;5.10;94.20;;;;;;5069722;28;20250;-81
2020/12/17 00:25:19;;;;;;;143.67;50.73;;;5.10;94.20;;;;;;5063730;28;20201;-82
2020/12/17 00:27:48;;;;;;;138.13;54.00;;;5.10;94.20;;;;;;5048858;28;20285;-81
2020/12/17 00:30:17;;;;;;;144.23;53.83;;;5.10;94.10;;;;;;5049171;28;20291;-82
2020/12/17 00:32:46;;;;;;;152.17;52.43;;;5.10;94.10;;;;;;5050022;28;20233;-81
2020/12/17 00:35:15;;;;;;;153.83;53.00;;;5.10;94.10;;;;;;5043872;28;20199;-81
2020/12/17 00:37:43;;;;;;;148.67;53.30;;;5.10;94.10;;;;;;5054396;28;20197;-80
2020/12/17 00:40:12;;;;;;;156.20;55.07;;;5.10;94.10;;;;;;5043635;28;20241;-82
2020/12/17 00:42:40;;;;;;;156.97;56.70;;;5.10;94.10;;;;;;5052445;28;20240;-78
2020/12/17 00:45:08;;;;;;;159.77;55.53;;;5.00;94.10;;;;;;5051511;28;20236;-82
2020/12/17 00:47:36;;;;;;;158.27;55.47;;;5.00;94.10;;;;;;5054571;28;20201;-80
2020/12/17 00:50:06;;;;;;;157.47;54.10;;;5.00;94.10;;;;;;5076996;28;20284;-80
2020/12/17 00:52:35;;;;;;;165.83;54.37;;;5.10;94.10;;;;;;5070418;28;20690;-80
2020/12/17 00:55:04;;;;;;;168.17;56.00;;;5.10;94.10;;;;;;5074402;28;20201;-81
2020/12/17 00:57:31;;;;;;;165.20;56.30;;;5.10;94.10;;;;;;5055186;28;20287;-81
2020/12/17 00:59:59;;;;;;;148.57;53.90;;;5.10;94.10;;;;;;5046571;28;20269;-79
2020/12/17 01:02:26;;;;;;;166.37;57.50;;;5.10;94.10;;;;;;5064433;28;20773;-81
2020/12/17 01:04:54;;;;;;;173.77;58.60;;;5.00;94.10;;;;;;5050507;28;20198;-81
2020/12/17 01:07:23;;;;;;;164.67;55.53;;;5.10;94.10;;;;;;5047191;28;20302;-82
2020/12/17 01:09:50;;;;;;;178.43;59.47;;;5.00;94.10;;;;;;5059929;28;20266;-80
2020/12/17 01:12:18;;;;;;;178.47;57.27;;;5.00;94.10;;;;;;5048474;28;20226;-80
2020/12/17 01:14:46;;;;;;;190.00;59.37;;;5.00;94.10;;;;;;5058246;28;20487;-80
2020/12/17 01:17:15;;;;;;;179.23;56.10;;;5.10;94.10;;;;;;5050227;28;20235;-81
2020/12/17 01:19:44;;;;;;;178.17;61.07;;;5.10;94.10;;;;;;5044323;28;20202;-82
2020/12/17 01:22:11;;;;;;;192.13;61.53;;;5.10;94.10;;;;;;5054804;28;20220;-80
2020/12/17 01:24:40;;;;;;;174.37;58.10;;;5.00;94.00;;;;;;5042794;28;20300;-82
2020/12/17 01:27:07;;;;;;;179.67;59.93;;;5.00;94.00;;;;;;5053764;28;21178;-81
2020/12/17 01:29:35;;;;;;;205.03;62.83;;;5.10;94.00;;;;;;5051541;28;20202;-82
2020/12/17 01:32:02;;;;;;;185.90;62.43;;;5.10;94.00;;;;;;5052153;28;20229;-81
2020/12/17 01:34:30;;;;;;;186.10;63.93;;;5.10;94.00;;;;;;5058622;28;20295;-81
2020/12/17 01:36:57;;;;;;;184.87;60.47;;;5.10;94.00;;;;;;5049406;28;20197;-82
2020/12/17 01:39:25;;;;;;;182.63;59.30;;;5.10;94.00;;;;;;5051005;28;20247;-82
2020/12/17 01:41:55;;;;;;;173.70;59.03;;;5.10;94.00;;;;;;5057258;28;20200;-79
2020/12/17 01:44:22;;;;;;;183.63;60.23;;;5.10;94.00;;;;;;5056946;28;20232;-82
2020/12/17 01:46:53;;;;;;;184.13;60.83;;;5.10;94.00;;;;;;5077051;28;20216;-83
2020/12/17 01:49:23;;;;;;;169.70;57.63;;;5.10;94.00;;;;;;5046216;28;20202;-80
2020/12/17 01:51:53;;;;;;;178.00;59.83;;;5.10;94.00;;;;;;5047283;28;20235;-81
2020/12/17 01:54:20;;;;;;;173.07;59.90;;;5.10;94.00;;;;;;5054382;28;20722;-81
2020/12/17 01:56:52;;;;;;;185.83;61.37;;;5.10;94.00;;;;;;5041470;28;20384;-80
2020/12/17 01:59:22;;;;;;;188.70;58.73;;;5.00;94.00;;;;;;5052149;28;20194;-81
2020/12/17 02:01:51;;;;;;;189.63;62.47;;;5.00;94.00;;;;;;5034960;28;20247;-81
2020/12/17 02:04:22;;;;;;;182.87;60.10;;;5.00;94.00;;;;;;5048301;28;20200;-82
2020/12/17 02:06:50;;;;;;;184.97;60.70;;;5.00;94.00;;;;;;5053316;28;20784;-80
2020/12/17 02:09:19;;;;;;;182.27;58.87;;;5.00;94.00;;;;;;5055853;28;20193;-83
2020/12/17 02:11:57;;;;;;;163.40;57.53;;;5.00;94.00;;;;;;5076169;28;20194;-81
2020/12/17 02:14:26;;;;;;;163.00;59.57;;;5.00;94.00;;;;;;5062545;28;20186;-81
2020/12/17 02:16:55;;;;;;;173.40;58.40;;;5.00;94.00;;;;;;5071439;28;20197;-82
2020/12/17 02:19:23;;;;;;;162.50;55.57;;;5.00;94.00;;;;;;5077622;28;20190;-83
2020/12/17 02:21:51;;;;;;;164.53;55.63;;;5.00;94.00;;;;;;5070444;28;20181;-79
2020/12/17 02:24:21;;;;;;;158.57;58.33;;;5.00;94.00;;;;;;5063850;28;20202;-80
2020/12/17 02:26:49;;;;;;;163.80;57.17;;;5.00;94.00;;;;;;5061738;28;20213;-80
2020/12/17 02:29:18;;;;;;;162.90;55.67;;;5.00;94.00;;;;;;5070216;28;20261;-80
2020/12/17 02:31:45;;;;;;;164.37;56.87;;;5.00;94.00;;;;;;5058750;28;20228;-80
2020/12/17 02:34:13;;;;;;;151.87;55.83;;;5.00;94.00;;;;;;5046973;28;20579;-80
2020/12/17 02:36:42;;;;;;;140.17;52.10;;;5.00;94.00;;;;;;5050943;28;20375;-80
2020/12/17 02:39:09;;;;;;;143.47;51.40;;;5.00;94.00;;;;;;5049234;28;20228;-80
2020/12/17 02:41:38;;;;;;;140.73;51.83;;;5.00;94.00;;;;;;5038692;28;20660;-80
2020/12/17 02:44:05;;;;;;;153.73;56.80;;;5.00;94.00;;;;;;5055398;28;20331;-80
2020/12/17 02:46:35;;;;;;;161.13;59.10;;;5.10;94.00;;;;;;5046886;28;20212;-80
2020/12/17 02:49:03;;;;;;;151.30;54.93;;;5.00;94.00;;;;;;5053352;28;20590;-81
2020/12/17 02:51:31;;;;;;;133.77;53.80;;;5.00;94.00;;;;;;5052706;28;20221;-81
2020/12/17 02:53:59;;;;;;;151.33;53.77;;;5.00;94.00;;;;;;5053007;28;20326;-81
2020/12/17 02:56:26;;;;;;;145.73;54.53;;;5.00;94.00;;;;;;5052555;28;20208;-79
2020/12/17 02:58:54;;;;;;;136.70;53.43;;;5.00;94.00;;;;;;5051833;28;20609;-81
2020/12/17 03:01:22;;;;;;;164.87;56.23;;;5.00;94.00;;;;;;5060510;28;20288;-83
2020/12/17 03:03:49;;;;;;;152.97;57.10;;;5.00;94.00;;;;;;5072480;28;20197;-82
2020/12/17 03:06:18;;;;;;;159.10;53.77;;;5.00;94.10;;;;;;5061792;28;20200;-80
2020/12/17 03:08:46;;;;;;;163.07;57.73;;;4.90;94.00;;;;;;5064364;28;20189;-80
2020/12/17 03:11:14;;;;;;;166.43;55.90;;;5.00;94.00;;;;;;5075241;28;20193;-81
2020/12/17 03:13:42;;;;;;;164.73;57.47;;;5.00;94.00;;;;;;5036746;28;20221;-82
2020/12/17 03:16:10;;;;;;;168.10;55.77;;;5.00;94.00;;;;;;5064060;28;20644;-80
2020/12/17 03:18:38;;;;;;;170.43;55.27;;;5.10;94.00;;;;;;5067527;28;20183;-80
2020/12/17 03:21:05;;;;;;;157.33;52.53;;;4.90;94.00;;;;;;5074204;28;20269;-81
2020/12/17 03:23:35;;;;;;;159.53;54.40;;;4.90;94.00;;;;;;5075356;28;20884;-82
2020/12/17 03:26:03;;;;;;;154.17;54.97;;;4.90;94.00;;;;;;5066584;28;20464;-80
2020/12/17 03:28:31;;;;;;;157.47;54.83;;;5.00;94.00;;;;;;5074222;28;20212;-80
2020/12/17 03:30:58;;;;;;;142.43;53.07;;;5.00;94.00;;;;;;5048348;28;20318;-80
2020/12/17 03:33:26;;;;;;;158.13;55.13;;;5.00;94.00;;;;;;5065819;28;20259;-82
2020/12/17 03:35:54;;;;;;;170.93;57.40;;;5.00;94.00;;;;;;5079933;28;20264;-82
2020/12/17 03:38:38;;;;;;;164.93;56.50;;;4.90;94.00;;;;;;5068147;28;20193;-81
2020/12/17 03:41:06;;;;;;;167.30;57.93;;;4.90;94.00;;;;;;5079221;28;20212;-82
2020/12/17 03:43:33;;;;;;;157.50;57.37;;;5.00;94.00;;;;;;5070390;28;20186;-81
2020/12/17 03:46:01;;;;;;;157.77;54.30;;;5.10;94.00;;;;;;5075997;28;20205;-81
2020/12/17 03:48:29;;;;;;;161.87;56.73;;;4.90;94.00;;;;;;5082722;28;20329;-80
2020/12/17 03:50:57;;;;;;;153.33;55.97;;;5.00;94.00;;;;;;5061879;28;20564;-81
2020/12/17 03:53:24;;;;;;;148.93;56.23;;;4.90;93.90;;;;;;5066698;28;20232;-80
2020/12/17 03:55:52;;;;;;;147.80;54.97;;;5.00;94.00;;;;;;5068829;28;20266;-81
2020/12/17 03:58:20;;;;;;;150.73;56.83;;;5.00;94.00;;;;;;5075486;28;20207;-81
2020/12/17 04:00:47;;;;;;;150.50;55.30;;;5.00;94.00;;;;;;5083444;28;20201;-80
2020/12/17 04:03:16;;;;;;;139.33;52.47;;;4.90;94.00;;;;;;5073283;28;20446;-81
2020/12/17 04:05:44;;;;;;;146.93;54.63;;;5.00;94.00;;;;;;5070193;28;20205;-81
2020/12/17 04:08:11;;;;;;;148.17;56.97;;;4.90;94.00;;;;;;5079832;28;20185;-82
2020/12/17 04:10:39;;;;;;;147.67;56.80;;;4.90;94.00;;;;;;5073660;28;20206;-82
2020/12/17 04:13:06;;;;;;;146.77;53.70;;;4.90;94.00;;;;;;5079230;28;20205;-81
2020/12/17 04:15:34;;;;;;;146.67;52.73;;;4.90;94.00;;;;;;5069457;28;20198;-81
2020/12/17 04:18:01;;;;;;;144.90;53.97;;;4.90;94.00;;;;;;5062726;28;20278;-82
2020/12/17 04:20:29;;;;;;;146.23;53.73;;;4.90;94.00;;;;;;5064989;28;20239;-81
2020/12/17 04:22:57;;;;;;;139.67;55.07;;;4.90;94.00;;;;;;5051919;28;20453;-80
2020/12/17 04:25:25;;;;;;;145.27;54.50;;;4.90;94.00;;;;;;5053925;28;20885;-82
2020/12/17 04:27:52;;;;;;;142.87;53.30;;;4.90;94.00;;;;;;5067061;28;20246;-81
2020/12/17 04:30:20;;;;;;;147.50;53.93;;;5.00;94.00;;;;;;5073966;28;20213;-80
2020/12/17 04:32:48;;;;;;;136.63;53.23;;;5.00;94.00;;;;;;5060951;28;20267;-79
2020/12/17 04:35:16;;;;;;;138.33;53.97;;;4.90;94.00;;;;;;5058952;28;20227;-80
2020/12/17 04:37:44;;;;;;;142.50;55.13;;;4.90;94.00;;;;;;5051786;28;20206;-81
2020/12/17 04:40:12;;;;;;;143.50;55.27;;;4.90;94.00;;;;;;5058829;28;20510;-80
2020/12/17 04:42:44;;;;;;;152.60;57.17;;;4.90;94.00;;;;;;5054849;28;20178;-82
2020/12/17 04:45:12;;;;;;;146.63;55.37;;;5.00;94.00;;;;;;5060935;28;20277;-80
2020/12/17 04:47:40;;;;;;;144.23;56.40;;;4.90;93.90;;;;;;5051816;28;20479;-82
2020/12/17 04:50:09;;;;;;;156.53;56.10;;;4.80;93.90;;;;;;5057520;28;20214;-81
2020/12/17 04:52:38;;;;;;;143.60;57.20;;;4.90;93.90;;;;;;5062497;28;20446;-83
2020/12/17 04:55:08;;;;;;;139.80;58.67;;;4.90;93.90;;;;;;5065686;28;20304;-81
2020/12/17 04:57:43;;;;;;;124.43;50.17;;;4.90;93.90;;;;;;5045901;28;20387;-80
2020/12/17 05:00:11;;;;;;;138.97;53.10;;;5.00;93.90;;;;;;5059386;28;20205;-79
2020/12/17 05:02:41;;;;;;;122.07;51.40;;;5.00;93.90;;;;;;5055104;28;20304;-80
2020/12/17 05:05:09;;;;;;;103.10;43.07;;;5.00;93.90;;;;;;5046792;28;20214;-81
2020/12/17 05:07:37;;;;;;;119.63;52.57;;;5.10;94.00;;;;;;5055452;28;20278;-80
2020/12/17 05:10:05;;;;;;;133.17;53.37;;;5.00;94.00;;;;;;5052360;28;20202;-83
2020/12/17 05:12:32;;;;;;;124.90;50.73;;;5.00;94.00;;;;;;5061909;28;20239;-80
2020/12/17 05:15:01;;;;;;;114.53;47.80;;;5.00;94.00;;;;;;5078617;28;20236;-79
2020/12/17 05:17:28;;;;;;;122.27;53.17;;;5.00;94.00;;;;;;5063736;28;20660;-82
2020/12/17 05:19:57;;;;;;;126.00;50.53;;;5.00;94.00;;;;;;5068532;28;20178;-80
2020/12/17 05:22:26;;;;;;;137.37;51.83;;;5.00;94.00;;;;;;5072543;28;20211;-80
2020/12/17 05:24:54;;;;;;;130.77;53.73;;;5.10;94.00;;;;;;5068716;28;20201;-80
2020/12/17 05:27:23;;;;;;;135.80;54.60;;;4.90;94.00;;;;;;5062635;28;20202;-80
2020/12/17 05:29:55;;;;;;;134.53;55.37;;;4.90;94.00;;;;;;5042485;28;20189;-80
2020/12/17 05:32:24;;;;;;;126.97;51.53;;;5.00;94.00;;;;;;5060174;28;20224;-81
2020/12/17 05:34:51;;;;;;;126.43;51.83;;;4.90;94.00;;;;;;5080426;28;20485;-81
2020/12/17 05:37:22;;;;;;;132.27;53.03;;;4.90;94.00;;;;;;5070695;28;20197;-80
2020/12/17 05:39:59;;;;;;;120.73;50.17;;;5.00;94.00;;;;;;5057805;28;20181;-81
2020/12/17 05:42:28;;;;;;;114.50;49.87;;;5.00;94.00;;;;;;5064225;28;20201;-81
2020/12/17 05:44:55;;;;;;;116.27;49.30;;;5.00;94.00;;;;;;5075631;28;20188;-82
2020/12/17 05:47:23;;;;;;;116.20;50.13;;;5.00;94.00;;;;;;5076644;28;20202;-82
2020/12/17 05:49:51;;;;;;;121.70;48.80;;;5.00;94.00;;;;;;5054740;28;20590;-81
2020/12/17 05:52:20;;;;;;;111.83;49.73;;;5.00;94.00;;;;;;5058900;28;20217;-81
2020/12/17 05:55:01;;;;;;;109.60;48.00;;;5.00;94.00;;;;;;5053959;28;20524;-81
2020/12/17 05:57:29;;;;;;;108.97;46.80;;;5.00;94.00;;;;;;5042545;28;20680;-81
2020/12/17 05:59:59;;;;;;;113.83;49.27;;;5.00;94.00;;;;;;5051586;28;20629;-80
2020/12/17 06:02:29;;;;;;;113.93;50.47;;;5.00;94.00;;;;;;5060690;28;20275;-80
2020/12/17 06:05:03;;;;;;;111.33;49.07;;;5.00;94.00;;;;;;5047240;28;20447;-81
2020/12/17 06:07:33;;;;;;;118.57;48.80;;;5.00;94.10;;;;;;5041458;28;20344;-82
2020/12/17 06:10:21;;;;;;;108.07;47.87;;;5.00;94.10;;;;;;5053570;28;20216;-83
2020/12/17 06:12:54;;;;;;;107.57;48.03;;;5.00;94.10;;;;;;5059878;28;20236;-81
2020/12/17 06:15:23;;;;;;;117.10;47.77;;;5.00;94.10;;;;;;5072401;28;20606;-81
2020/12/17 06:17:53;;;;;;;100.83;45.83;;;5.00;94.00;;;;;;5049943;28;20206;-80
2020/12/17 06:20:22;;;;;;;109.13;49.60;;;5.00;94.00;;;;;;5044492;28;20210;-81
2020/12/17 06:22:51;;;;;;;116.50;48.83;;;5.00;94.00;;;;;;5055419;28;20209;-80
2020/12/17 06:25:20;;;;;;;109.70;46.27;;;5.00;94.00;;;;;;5043901;28;20197;-80
2020/12/17 06:27:50;;;;;;;99.83;47.00;;;5.10;94.10;;;;;;5049835;28;20650;-81
2020/12/17 06:30:21;;;;;;;102.00;46.33;;;5.00;94.10;;;;;;5051395;28;20316;-81
2020/12/17 06:32:53;;;;;;;99.30;46.63;;;5.10;94.10;;;;;;5057500;28;20224;-80
2020/12/17 06:35:34;;;;;;;100.00;44.90;;;5.10;94.10;;;;;;5050839;28;20201;-80
2020/12/17 06:38:07;;;;;;;100.27;44.40;;;5.00;94.10;;;;;;5058180;28;20251;-81
2020/12/17 06:40:38;;;;;;;97.77;46.77;;;5.00;94.10;;;;;;5074867;28;20185;-80
2020/12/17 06:43:12;;;;;;;102.47;45.77;;;5.00;94.10;;;;;;5068759;28;20208;-83
2020/12/17 06:45:39;;;;;;;100.97;45.87;;;5.10;94.10;;;;;;5054471;28;20208;-81
2020/12/17 06:48:31;;;;;;;106.03;48.77;;;5.10;94.10;;;;;;5067703;28;20273;-81
2020/12/17 06:51:00;;;;;;;101.93;46.10;;;5.00;94.10;;;;;;5055447;28;20202;-80
2020/12/17 06:53:38;;;;;;;110.10;47.33;;;5.10;94.10;;;;;;5044577;28;20684;-80
2020/12/17 06:56:07;;;;;;;95.40;44.70;;;5.10;94.10;;;;;;5043982;28;20889;-83
2020/12/17 06:58:35;;;;;;;106.60;47.17;;;5.10;94.10;;;;;;5048813;28;20624;-83
2020/12/17 07:01:20;;;;;;;96.00;45.53;;;5.10;94.10;;;;;;5052232;28;20256;-80
2020/12/17 07:03:50;;;;;;;95.57;44.80;;;5.10;94.10;;;;;;5052209;28;20626;-80
2020/12/17 07:06:20;;;;;;;87.63;43.47;;;5.10;94.10;;;;;;5045195;28;20408;-81
2020/12/17 07:08:49;;;;;;;93.80;42.80;;;5.10;94.10;;;;;;5042023;28;20282;-81
2020/12/17 07:11:50;;;;;;;89.90;41.87;;;5.10;94.10;;;;;;5042570;28;20205;-82
2020/12/17 07:14:32;;;;;;;92.80;41.97;;;5.20;94.10;;;;;;5021422;28;20269;-82
2020/12/17 07:17:02;;;;;;;88.50;40.53;;;5.20;94.10;;;;;;5049692;28;20225;-81
2020/12/17 07:19:38;;;;;;;95.97;42.00;;;5.20;94.10;;;;;;5044781;28;20605;-83
2020/12/17 07:22:10;;;;;;;84.97;40.93;;;5.10;94.10;;;;;;5046879;28;20706;-81
2020/12/17 07:24:40;;;;;;;86.70;41.43;;;5.20;94.20;;;;;;5050053;28;20457;-81
2020/12/17 07:27:10;;;;;;;93.07;41.57;;;5.20;94.20;;;;;;4949236;28;20429;-80
2020/12/17 07:29:45;;;;;;;84.07;38.77;;;5.20;94.20;;;;;;4958791;28;20475;-81
2020/12/17 07:32:34;;;;;;;92.03;39.07;;;5.30;94.20;;;;;;4949880;28;20214;-82
2020/12/17 07:35:19;;;;;;;82.17;38.97;;;5.30;94.20;;;;;;4947240;28;20250;-80
2020/12/17 07:37:51;;;;;;;86.83;40.77;;;5.30;94.20;;;;;;4941351;28;20308;-81
2020/12/17 07:40:23;;;;;;;83.90;37.47;;;5.30;94.20;;;;;;4943814;28;20280;-81
2020/12/17 07:43:11;;;;;;;80.10;36.47;;;5.30;94.20;;;;;;4964337;28;20213;-84
2020/12/17 07:45:51;;;;;;;75.20;36.37;;;5.30;94.20;;;;;;4961343;28;20188;-81
2020/12/17 07:48:44;;;;;;;77.90;35.40;;;5.30;94.20;;;;;;4969573;28;20241;-82
2020/12/17 07:51:36;;;;;;;73.37;35.37;;;5.30;94.30;;;;;;4973422;28;20218;-79
2020/12/17 07:54:07;;;;;;;75.77;35.63;;;5.40;94.30;;;;;;5055011;28;20232;-79
2020/12/17 07:56:34;;;;;;;78.67;36.60;;;5.40;94.30;;;;;;5052742;28;20348;-79
2020/12/17 07:59:08;;;;;;;79.07;35.57;;;5.50;94.30;;;;;;5052397;28;20805;-80
2020/12/17 08:01:35;;;;;;;66.83;33.53;;;5.50;94.30;;;;;;5042771;28;20208;-79
2020/12/17 08:04:04;;;;;;;69.63;34.20;;;5.60;94.40;;;;;;5049327;28;20311;-80
2020/12/17 08:06:33;;;;;;;64.03;33.20;;;5.50;94.40;;;;;;5072529;28;20271;-80
2020/12/17 08:09:04;;;;;;;63.17;32.93;;;5.50;94.40;;;;;;5046981;28;20300;-80
2020/12/17 08:11:46;;;;;;;66.97;34.43;;;5.40;94.30;;;;;;5056898;28;20203;-82
2020/12/17 08:14:15;;;;;;;72.27;34.23;;;5.50;94.40;;;;;;5048957;28;20623;-80
2020/12/17 08:16:42;;;;;;;62.23;31.57;;;5.50;94.40;;;;;;5041751;28;20217;-82
2020/12/17 08:19:11;;;;;;;63.93;33.20;;;5.50;94.40;;;;;;5049571;28;20201;-81
2020/12/17 08:21:41;;;;;;;64.13;34.53;;;5.50;94.30;;;;;;5052252;28;20483;-83
2020/12/17 08:24:10;;;;;;;63.57;32.10;;;5.50;94.30;;;;;;5033152;28;20217;-81
2020/12/17 08:26:38;;;;;;;59.20;33.43;;;5.70;94.40;;;;;;5027568;28;20782;-80
2020/12/17 08:29:05;;;;;;;59.70;32.23;;;5.60;94.40;;;;;;5067218;28;20475;-80
2020/12/17 08:31:33;;;;;;;61.73;31.67;;;5.60;94.30;;;;;;5045191;28;20773;-80
2020/12/17 08:34:04;;;;;;;59.57;32.70;;;5.60;94.30;;;;;;5043341;28;20229;-80
2020/12/17 08:36:33;;;;;;;58.73;32.10;;;5.60;94.30;;;;;;5047030;28;20283;-80
2020/12/17 08:39:06;;;;;;;59.63;32.00;;;5.70;94.40;;;;;;5044965;28;20204;-82
2020/12/17 08:41:49;;;;;;;53.07;31.00;;;5.70;94.30;;;;;;5052230;28;20465;-81
2020/12/17 08:44:21;;;;;;;55.27;30.13;;;5.70;94.30;;;;;;5044960;28;20201;-82
2020/12/17 08:46:52;;;;;;;59.13;30.57;;;5.70;94.30;;;;;;5032192;28;20227;-79
2020/12/17 08:49:23;;;;;;;58.00;30.37;;;5.70;94.30;;;;;;5041119;28;20210;-80
2020/12/17 08:51:51;;;;;;;58.57;30.67;;;5.70;94.20;;;;;;5038305;28;20481;-82
2020/12/17 08:54:25;;;;;;;54.53;30.20;;;5.80;94.20;;;;;;5045752;28;20550;-80
2020/12/17 08:57:01;;;;;;;58.83;31.90;;;5.70;94.20;;;;;;5036870;28;20367;-80
2020/12/17 08:59:28;;;;;;;56.17;32.10;;;5.60;94.10;;;;;;5044376;28;20205;-80
2020/12/17 09:01:58;;;;;;;63.37;33.90;;;5.70;94.20;;;;;;5041555;28;20260;-80
2020/12/17 09:04:26;;;;;;;56.07;31.03;;;5.70;94.20;;;;;;5033571;28;20569;-82
2020/12/17 09:06:57;;;;;;;55.73;30.27;;;5.70;94.10;;;;;;5033701;28;20216;-81
2020/12/17 09:09:27;;;;;;;58.30;31.83;;;5.70;94.10;;;;;;5033188;28;20623;-81
2020/12/17 09:12:11;;;;;;;58.40;31.37;;;5.80;94.10;;;;;;5027243;28;20208;-79
2020/12/17 09:14:40;;;;;;;59.40;32.20;;;5.90;94.00;;;;;;5037171;28;20234;-83
2020/12/17 09:17:10;;;;;;;56.67;32.17;;;5.80;94.00;;;;;;5038672;28;20221;-80
2020/12/17 09:19:38;;;;;;;54.43;30.83;;;5.70;94.00;;;;;;5034507;28;20229;-80
2020/12/17 09:22:06;;;;;;;64.37;32.27;;;5.90;94.00;;;;;;5038244;28;20759;-80
2020/12/17 09:24:34;;;;;;;54.60;32.57;;;5.90;94.00;;;;;;5049118;28;20394;-82
2020/12/17 09:27:18;;;;;;;54.37;31.57;;;5.90;93.90;;;;;;5036442;28;20206;-81
2020/12/17 09:29:59;;;;;;;53.40;31.03;;;5.90;93.90;;;;;;5037435;28;20336;-79
2020/12/17 09:32:28;;;;;;;57.73;32.00;;;5.90;93.80;;;;;;5053739;28;20408;-79
2020/12/17 09:35:08;;;;;;;56.70;32.27;;;6.00;93.90;;;;;;5057187;28;20225;-81
2020/12/17 09:37:36;;;;;;;55.43;30.80;;;6.00;93.90;;;;;;5061431;28;20293;-81
2020/12/17 09:40:06;;;;;;;52.10;31.10;;;6.10;93.80;;;;;;5043887;28;20205;-81
2020/12/17 09:42:35;;;;;;;56.57;31.37;;;6.00;93.60;;;;;;5039588;28;20773;-80
2020/12/17 09:45:14;;;;;;;54.70;29.93;;;6.00;93.60;;;;;;5039505;28;20217;-81
2020/12/17 09:47:41;;;;;;;49.53;30.73;;;6.00;93.60;;;;;;5041469;28;20217;-80
2020/12/17 09:50:11;;;;;;;60.90;32.93;;;6.10;93.60;;;;;;5046251;28;20379;-79
2020/12/17 09:52:40;;;;;;;53.67;30.07;;;6.00;93.60;;;;;;5042420;28;20222;-82
2020/12/17 09:55:07;;;;;;;55.50;30.40;;;6.10;93.60;;;;;;5030740;28;20220;-81
2020/12/17 09:57:39;;;;;;;52.10;30.60;;;6.10;93.50;;;;;;5037631;28;20948;-78
2020/12/17 10:00:12;;;;;;;60.13;31.77;;;6.10;93.40;;;;;;5033496;28;20318;-81
2020/12/17 10:02:40;;;;;;;52.37;31.30;;;6.10;93.50;;;;;;5030888;28;20502;-82
2020/12/17 10:05:11;;;;;;;59.07;31.57;;;6.20;93.50;;;;;;5037445;28;20294;-81
2020/12/17 10:07:39;;;;;;;57.10;32.13;;;6.30;93.40;;;;;;5049776;28;20202;-79
2020/12/17 10:10:07;;;;;;;55.47;32.90;;;6.20;93.40;;;;;;5056149;28;20342;-81
2020/12/17 10:12:42;;;;;;;59.60;32.07;;;6.20;93.50;;;;;;5045503;28;20238;-80
2020/12/17 10:15:10;;;;;;;51.07;30.60;;;6.20;93.40;;;;;;5046893;28;21206;-80
2020/12/17 10:17:38;;;;;;;54.73;31.60;;;6.20;93.40;;;;;;5042855;28;20686;-81
2020/12/17 10:20:07;;;;;;;58.27;32.50;;;6.20;93.30;;;;;;5037990;28;20215;-82
2020/12/17 10:22:45;;;;;;;57.63;31.87;;;6.20;93.40;;;;;;5036666;28;20614;-82
2020/12/17 10:25:14;;;;;;;54.50;31.70;;;6.20;93.40;;;;;;5040969;28;20795;-82
2020/12/17 10:27:43;;;;;;;55.00;31.80;;;6.20;93.30;;;;;;5038193;28;20468;-81
2020/12/17 10:30:12;;;;;;;54.83;32.37;;;6.30;93.30;;;;;;5045057;28;20638;-80
2020/12/17 10:32:41;;;;;;;60.00;33.07;;;6.20;93.30;;;;;;5038021;28;20212;-81
2020/12/17 10:35:11;;;;;;;59.60;32.27;;;6.20;93.30;;;;;;5033083;28;20682;-79
2020/12/17 10:37:39;;;;;;;58.43;33.17;;;6.20;93.40;;;;;;5054457;28;20607;-78
2020/12/17 10:40:08;;;;;;;62.37;32.77;;;6.10;93.20;;;;;;5037043;28;20602;-79
2020/12/17 10:42:37;;;;;;;59.93;33.60;;;6.20;93.30;;;;;;5060386;28;20226;-79
2020/12/17 10:45:07;;;;;;;60.00;32.37;;;6.20;93.40;;;;;;5048966;28;20723;-79
2020/12/17 10:47:35;;;;;;;64.77;32.13;;;6.10;93.30;;;;;;5042741;28;20263;-79
2020/12/17 10:50:02;;;;;;;59.53;33.53;;;6.20;93.40;;;;;;5063191;28;20198;-80
2020/12/17 10:52:30;;;;;;;65.77;34.97;;;6.10;93.40;;;;;;5063860;28;20202;-80
2020/12/17 10:54:58;;;;;;;59.23;33.43;;;6.20;93.40;;;;;;5068435;28;20454;-81
2020/12/17 10:57:25;;;;;;;58.27;33.90;;;6.20;93.50;;;;;;5065619;28;20190;-78
2020/12/17 10:59:53;;;;;;;66.07;35.37;;;6.20;93.40;;;;;;5060074;28;20198;-79
2020/12/17 11:02:22;;;;;;;68.20;34.57;;;6.30;93.40;;;;;;5061194;28;20591;-80
2020/12/17 11:04:49;;;;;;;66.63;34.83;;;6.20;93.40;;;;;;5059132;28;20206;-80
2020/12/17 11:07:17;;;;;;;62.83;35.20;;;6.30;93.30;;;;;;5054352;28;20256;-79
2020/12/17 11:09:44;;;;;;;59.60;34.00;;;6.30;93.40;;;;;;5040738;28;20202;-79
2020/12/17 11:12:13;;;;;;;62.87;35.37;;;6.40;93.30;;;;;;5039296;28;20445;-81
2020/12/17 11:14:41;;;;;;;64.73;35.73;;;6.40;93.20;;;;;;5052488;28;20227;-81
2020/12/17 11:17:09;;;;;;;69.23;38.30;;;6.40;93.20;;;;;;5038503;28;20218;-82
2020/12/17 11:19:37;;;;;;;71.53;37.83;;;6.40;93.10;;;;;;5052431;28;20210;-81
2020/12/17 11:22:06;;;;;;;68.70;36.43;;;6.40;93.00;;;;;;5038027;28;20252;-79
2020/12/17 11:24:33;;;;;;;77.87;39.43;;;6.40;93.10;;;;;;5035667;28;20234;-81
2020/12/17 11:27:01;;;;;;;71.37;37.90;;;6.40;93.10;;;;;;5039185;28;20243;-81
2020/12/17 11:29:28;;;;;;;73.30;38.87;;;6.20;93.10;;;;;;5039743;28;20791;-79
2020/12/17 11:31:56;;;;;;;75.63;40.27;;;6.20;93.10;;;;;;5036868;28;20873;-80
2020/12/17 11:34:23;;;;;;;77.50;41.57;;;6.30;93.20;;;;;;5036674;28;20459;-80
2020/12/17 11:36:52;;;;;;;86.83;44.83;;;6.30;93.20;;;;;;5037443;28;20211;-81
2020/12/17 11:39:20;;;;;;;80.43;42.23;;;6.20;93.10;;;;;;5041171;28;20372;-81
2020/12/17 11:41:48;;;;;;;83.37;43.00;;;6.20;93.20;;;;;;5033609;28;20640;-78
2020/12/17 11:44:17;;;;;;;77.13;41.27;;;6.20;93.20;;;;;;5033203;28;20258;-78
2020/12/17 11:46:45;;;;;;;83.13;41.83;;;6.20;93.20;;;;;;5021696;28;20206;-79
2020/12/17 11:49:14;;;;;;;89.27;44.10;;;6.20;93.30;;;;;;5039668;28;20502;-79
2020/12/17 11:51:42;;;;;;;83.43;43.27;;;6.30;93.30;;;;;;5013991;28;20518;-82
2020/12/17 11:54:11;;;;;;;83.23;41.97;;;6.40;93.30;;;;;;5031727;28;20225;-80
2020/12/17 11:56:38;;;;;;;78.43;42.13;;;6.30;93.30;;;;;;5036374;28;20199;-79
2020/12/17 11:59:06;;;;;;;83.10;41.13;;;6.20;93.20;;;;;;5026208;28;20222;-81
2020/12/17 12:01:33;;;;;;;84.47;42.17;;;6.30;93.30;;;;;;5035813;28;20210;-80
2020/12/17 12:04:01;;;;;;;83.67;42.83;;;6.20;93.30;;;;;;5042462;28;20267;-83
2020/12/17 12:06:29;;;;;;;81.00;40.23;;;6.20;93.30;;;;;;4940895;28;20219;-81
2020/12/17 12:08:56;;;;;;;81.63;40.53;;;6.30;93.30;;;;;;5035327;28;20258;-81
2020/12/17 12:11:25;;;;;;;82.87;40.10;;;6.20;93.30;;;;;;5027137;28;20202;-81
2020/12/17 12:13:53;;;;;;;81.13;40.57;;;6.30;93.30;;;;;;5032203;28;20237;-80
2020/12/17 12:16:22;;;;;;;77.57;40.67;;;6.20;93.30;;;;;;5021161;28;20358;-80
2020/12/17 12:18:49;;;;;;;80.57;40.57;;;6.20;93.20;;;;;;5031232;28;20692;-79
2020/12/17 12:21:18;;;;;;;79.23;40.37;;;6.20;93.20;;;;;;5007583;28;20245;-81
2020/12/17 12:23:46;;;;;;;84.33;40.80;;;6.20;93.20;;;;;;5035108;28;20819;-80
2020/12/17 12:26:22;;;;;;;82.77;41.27;;;6.20;93.20;;;;;;5038966;28;20210;-80
2020/12/17 12:28:50;;;;;;;84.53;40.30;;;6.20;93.20;;;;;;5062656;28;20274;-81
2020/12/17 12:31:18;;;;;;;80.97;39.80;;;6.20;93.20;;;;;;5054261;28;20718;-81
2020/12/17 12:33:46;;;;;;;73.93;39.87;;;6.20;93.20;;;;;;5040875;28;20223;-81
2020/12/17 12:36:14;;;;;;;83.33;40.97;;;6.20;93.20;;;;;;5041073;28;20205;-80
2020/12/17 12:38:41;;;;;;;82.67;42.37;;;6.10;93.10;;;;;;5036352;28;20200;-80
2020/12/17 12:41:09;;;;;;;87.20;41.93;;;6.30;93.20;;;;;;5035388;28;20450;-81
2020/12/17 12:43:37;;;;;;;79.40;39.23;;;6.30;93.10;;;;;;5041489;28;20202;-80